Maryland METAR Reports


Distance/Direction noted is from Ellicott City, MD as the crow flies

KCBE - Cumberland - 118 miles WNW
Updated: Sat, 11/01/2014 5:58 AM
Mostly Cloudy
Mostly Cloudy
 Wind from calm
Wind: Calm
Temperature: 41°F
Dew Point: 39°F
Humidity: 93%
Barometer: 29.90 inHg
Clouds: Mostly Cloudy
Visibility: 7 miles
Cloud Details: Mostly Cloudy 7500 ft
2014/11/01 09:58 KCBE 010958Z AUTO 00000KT 7SM BKN075 05/04 A2990 RMK AO1
KHGR - Hagerstown - 57 miles NW
Updated: Sat, 11/01/2014 5:53 AM
Overcast
Overcast
 Wind from N
Wind: N 8 mph
Temperature: 46°F
Wind Chill: 42°F
Dew Point: 37°F
Humidity: 71%
Barometer: 29.82 inHg
Clouds: Overcast
Visibility: 10 miles
Cloud Details: Overcast 3400 ft
2014/11/01 09:53 KHGR 010953Z AUTO 35007KT 10SM OVC034 08/03 A2982 RMK AO2 RAB18E46 SLP110 P0000 T00780028
 
KFDK - Frederick - 34 miles NW
Updated: Sat, 11/01/2014 5:55 AM
Overcast
Overcast
 Wind from N
Wind: N 8 mph
Temperature: 50°F
Wind Chill: 47°F
Dew Point: 41°F
Humidity: 71%
Barometer: 29.83 inHg
Clouds: Overcast
Visibility: 10 miles
Cloud Details: Overcast 2300 ft
2014/11/01 09:55 KFDK 010955Z AUTO 36007KT 10SM OVC023 10/05 A2983 RMK AO2
KGAI - Gaithersburg - 26 miles SW
Updated: Sat, 11/01/2014 5:55 AM
Overcast
Overcast
 Wind from N
Wind: N 6 mph
Temperature: 45°F
Wind Chill: 42°F
Dew Point: 37°F
Humidity: 76%
Barometer: 29.81 inHg
Clouds: Overcast
Visibility: 10 miles
Cloud Details: Overcast 1600 ft
2014/11/01 09:55 KGAI 010955Z 36005KT 10SM OVC016 07/03 A2981 RMK AO1
 
KBWI - BWI Airport - 15 miles SE
Updated: Sat, 11/01/2014 5:54 AM
Overcast
Overcast
 Wind from N
Wind: N 9 mph
Temperature: 48°F
Wind Chill: 44°F
Dew Point: 41°F
Humidity: 76%
Barometer: 29.76 inHg
Clouds: Overcast
Visibility: 10 miles
Cloud Details: Overcast 2000 ft
2014/11/01 09:54 KBWI 010954Z 36008KT 10SM OVC020 09/05 A2976 RMK AO2 SLP079 T00890050 $
KNAK - Annapolis - 32 miles SSE
Updated: Sat, 11/01/2014 5:54 AM
Overcast
Overcast
 Wind from N
Wind: N 15 mph, Gust: 21 mph
Temperature: 52°F
Dew Point: 43°F
Humidity: 72%
Barometer: 29.75 inHg
Clouds: Overcast
Visibility: 10 miles
Cloud Details: Overcast 2100 ft
2014/11/01 09:54 KNAK 010954Z AUTO 35013G18KT 10SM OVC021 11/06 A2975 RMK AO2 SLP077 T01060061
 
KESN - Easton - 63 miles SE
Updated: Sat, 11/01/2014 6:12 AM
Mostly Cloudy
Mostly Cloudy
 Wind from NNE
Wind: NNE 10 mph, Gust: 21 mph
Temperature: 52°F
Dew Point: 46°F
Humidity: 82%
Barometer: 29.75 inHg
Clouds: Mostly Cloudy
Visibility: 10 miles
Cloud Details: Mostly Cloudy 1700 ft
2014/11/01 10:12 KESN 011012Z AUTO 03009G18KT 10SM BKN017 11/08 A2975 RMK AO2 T01100082
KSBY - Salisbury - 112 miles SE
Updated: Sat, 11/01/2014 5:54 AM
Overcast
Overcast
 Wind from N
Wind: N 14 mph
Temperature: 54°F
Dew Point: 48°F
Humidity: 82%
Barometer: 29.68 inHg
Clouds: Overcast
Visibility: 10 miles
Cloud Details: Overcast 900 ft
2014/11/01 09:54 KSBY 010954Z 35012KT 10SM OVC009 12/09 A2968 RMK AO2 SLP051 T01170089